createdAt,value
2018-02-07T04:32:35.704Z,40.53
2018-02-07T04:35:09.390Z,40.83
2018-02-07T04:37:43.224Z,45.35
2018-02-07T04:40:17.017Z,44.20
2018-02-07T04:42:50.944Z,41.20
2018-02-07T04:45:24.759Z,47.30
2018-02-07T04:47:59.337Z,43.95
2018-02-07T04:50:33.166Z,42.83
2018-02-07T04:53:06.971Z,41.28
2018-02-07T04:55:40.911Z,40.92
2018-02-07T04:58:38.640Z,45.80
2018-02-07T05:01:12.324Z,45.28
2018-02-07T05:03:46.869Z,40.83
2018-02-07T05:06:20.501Z,39.83
2018-02-07T05:08:55.100Z,48.17
2018-02-07T05:11:28.908Z,44.10
2018-02-07T05:14:03.464Z,38.75
2018-02-07T05:16:37.200Z,39.13
2018-02-07T05:19:11.207Z,37.08
2018-02-07T05:21:45.567Z,39.53
2018-02-07T05:24:19.665Z,41.63
2018-02-07T05:26:54.284Z,41.92
2018-02-07T05:29:28.199Z,41.60
2018-02-07T05:32:01.913Z,41.85
2018-02-07T05:34:36.525Z,40.80
2018-02-07T05:37:10.424Z,46.80
2018-02-07T05:39:44.340Z,43.20
2018-02-07T05:42:18.096Z,43.90
2018-02-07T05:44:51.909Z,45.22
2018-02-07T05:47:26.269Z,42.00
2018-02-07T05:49:59.983Z,44.30
2018-02-07T05:52:33.839Z,40.97
2018-02-07T05:55:07.786Z,42.13
2018-02-07T05:57:42.605Z,47.00
2018-02-07T06:00:16.743Z,38.63
2018-02-07T06:02:51.657Z,41.05
2018-02-07T06:05:25.581Z,39.35
2018-02-07T06:07:59.468Z,46.92
2018-02-07T06:10:35.327Z,47.45
2018-02-07T06:13:09.977Z,41.35
2018-02-07T06:15:44.385Z,42.75
2018-02-07T06:18:19.007Z,36.22
2018-02-07T06:20:56.243Z,44.22
2018-02-07T06:23:34.472Z,42.62
2018-02-07T06:26:11.407Z,45.50
2018-02-07T06:28:46.121Z,42.58
2018-02-07T06:31:22.733Z,49.58
2018-02-07T06:33:56.767Z,51.05
2018-02-07T06:36:31.425Z,56.63
2018-02-07T06:39:06.040Z,51.97
2018-02-07T06:41:41.404Z,44.50
2018-02-07T06:44:15.374Z,50.30
2018-02-07T06:46:49.442Z,37.38
2018-02-07T06:49:23.232Z,45.97
2018-02-07T06:51:57.828Z,43.95
2018-02-07T06:54:32.371Z,48.40
2018-02-07T06:57:06.122Z,41.42
2018-02-07T06:59:40.623Z,44.95
2018-02-07T07:02:14.731Z,43.50
2018-02-07T07:04:48.529Z,45.83
2018-02-07T07:07:22.399Z,39.85
2018-02-07T07:09:56.295Z,39.85
2018-02-07T07:12:30.081Z,47.15
2018-02-07T07:57:18.505Z,44.40
2018-02-07T07:59:52.255Z,44.33
2018-02-07T08:02:26.379Z,44.67
2018-02-07T08:05:02.948Z,51.55
2018-02-07T08:07:37.476Z,42.50
2018-02-07T08:10:11.361Z,44.35
2018-02-07T08:12:45.188Z,48.47
2018-02-07T08:15:19.810Z,48.15
2018-02-07T08:17:53.649Z,46.10
2018-02-07T08:20:27.493Z,49.75
2018-02-07T08:23:01.419Z,45.72
2018-02-07T08:25:35.159Z,47.33
2018-02-07T08:28:09.027Z,53.30
2018-02-07T08:30:43.562Z,41.97
2018-02-07T08:33:17.355Z,49.25
2018-02-07T08:35:51.892Z,49.97
2018-02-07T08:38:25.871Z,49.90
2018-02-07T08:41:00.509Z,49.85
2018-02-07T08:43:34.977Z,52.97
2018-02-07T08:46:08.785Z,59.60
2018-02-07T08:48:42.618Z,53.25
2018-02-07T08:51:16.400Z,47.35
2018-02-07T08:53:51.323Z,48.30
2018-02-07T08:56:26.641Z,51.92
2018-02-07T08:59:00.518Z,49.78
2018-02-07T09:01:35.373Z,51.35
2018-02-07T09:04:09.185Z,54.30
2018-02-07T09:06:43.787Z,51.00
2018-02-07T09:09:17.587Z,50.28
2018-02-07T09:11:51.452Z,51.90
2018-02-07T09:14:25.302Z,53.42
2018-02-07T09:16:59.438Z,51.45
2018-02-07T09:19:33.260Z,47.92
2018-02-07T09:22:07.844Z,51.53
2018-02-07T09:24:42.727Z,50.15
2018-02-07T09:27:16.656Z,51.53
2018-02-07T09:29:51.238Z,47.67
2018-02-07T09:32:25.002Z,49.92
2018-02-07T09:34:59.465Z,46.40
2018-02-07T09:37:33.252Z,67.55
2018-02-07T09:40:07.253Z,52.45
2018-02-07T09:42:41.946Z,45.85
2018-02-07T09:45:16.762Z,47.58
2018-02-07T09:47:50.620Z,47.35
2018-02-07T09:50:26.417Z,48.67
2018-02-07T09:53:00.232Z,48.65
2018-02-07T09:55:33.985Z,47.92
2018-02-07T09:58:07.779Z,51.88
2018-02-07T10:00:41.837Z,51.75
2018-02-07T10:03:15.673Z,47.47
2018-02-07T10:05:49.413Z,62.30
2018-02-07T10:08:25.086Z,53.70
2018-02-07T10:10:59.739Z,51.45
2018-02-07T10:13:34.339Z,57.03
2018-02-07T10:16:08.276Z,60.08
2018-02-07T10:18:42.857Z,66.40
2018-02-07T10:21:25.134Z,58.97
2018-02-07T10:23:59.116Z,61.50
2018-02-07T10:26:32.870Z,56.92
2018-02-07T10:29:07.448Z,52.05
2018-02-07T10:31:41.195Z,61.60
2018-02-07T10:34:16.072Z,48.63
2018-02-07T10:36:50.702Z,49.80
2018-02-07T10:39:24.488Z,51.33
2018-02-07T10:41:58.220Z,62.17
2018-02-07T10:44:33.603Z,63.08
2018-02-07T10:47:07.505Z,59.47
2018-02-07T10:49:41.364Z,56.58
2018-02-07T10:52:15.184Z,61.55
2018-02-07T10:54:49.796Z,58.55
2018-02-07T10:57:23.614Z,53.15
2018-02-07T10:59:58.528Z,53.65
2018-02-07T11:02:33.024Z,49.08
2018-02-07T11:05:07.770Z,57.62
2018-02-07T11:07:42.497Z,53.60
2018-02-07T11:10:16.344Z,49.97
2018-02-07T11:12:50.844Z,51.00
2018-02-07T11:15:26.385Z,54.67
2018-02-07T11:18:01.975Z,60.67
2018-02-07T11:20:36.685Z,48.03
2018-02-07T11:23:10.364Z,43.95
2018-02-07T11:25:44.184Z,48.90
2018-02-07T11:28:18.011Z,60.50
2018-02-07T11:30:56.715Z,51.35
2018-02-07T11:33:30.451Z,50.03
2018-02-07T11:36:04.162Z,55.97
2018-02-07T11:38:38.744Z,52.78
2018-02-07T11:41:13.260Z,47.13
2018-02-07T11:43:47.076Z,54.53
2018-02-07T11:46:21.184Z,56.90
2018-02-07T11:48:55.117Z,58.83
2018-02-07T11:51:28.912Z,50.70
2018-02-07T11:54:02.812Z,44.75
2018-02-07T11:56:37.695Z,50.33
2018-02-07T11:59:11.451Z,53.50
2018-02-07T12:01:45.168Z,57.03
2018-02-07T12:04:18.943Z,50.63
2018-02-07T12:06:52.762Z,57.45
2018-02-07T12:09:26.600Z,53.15
2018-02-07T12:12:00.343Z,61.05
2018-02-07T12:14:34.672Z,59.92
2018-02-07T12:17:08.523Z,75.12
2018-02-07T12:19:44.234Z,64.28
2018-02-07T12:22:18.096Z,58.33
2018-02-07T12:24:51.974Z,52.53
2018-02-07T12:27:26.504Z,54.40
2018-02-07T12:30:00.694Z,53.17
2018-02-07T12:32:34.500Z,66.53
2018-02-07T12:35:09.472Z,51.75
2018-02-07T12:37:44.063Z,51.95
2018-02-07T12:40:18.657Z,52.08
2018-02-07T12:42:53.218Z,56.00
2018-02-07T12:45:27.016Z,53.47
2018-02-07T12:48:01.654Z,55.30
2018-02-07T12:50:36.252Z,54.08
2018-02-07T12:53:10.088Z,56.45
2018-02-07T12:55:44.695Z,57.83
2018-02-07T12:58:19.379Z,51.33
2018-02-07T13:00:53.082Z,49.53
2018-02-07T13:03:26.823Z,54.83
2018-02-07T13:06:00.641Z,54.88
2018-02-07T13:08:34.956Z,55.63
2018-02-07T13:11:08.833Z,62.45
2018-02-07T13:13:43.473Z,57.80
2018-02-07T13:16:17.336Z,51.90
2018-02-07T13:18:51.471Z,55.88
2018-02-07T13:21:26.731Z,64.85
2018-02-07T13:24:00.545Z,54.20
2018-02-07T13:26:35.138Z,57.08
2018-02-07T13:29:08.921Z,55.80
2018-02-07T13:31:42.824Z,53.60
2018-02-07T13:34:16.677Z,55.92
2018-02-07T13:36:50.442Z,56.25
2018-02-07T13:39:24.174Z,54.15
2018-02-07T13:41:57.923Z,53.50
2018-02-07T13:44:32.636Z,51.65
2018-02-07T13:47:06.508Z,60.15
2018-02-07T13:49:41.373Z,67.72
2018-02-07T13:52:15.143Z,58.40
2018-02-07T13:54:49.808Z,62.58
2018-02-07T13:57:24.431Z,64.62
2018-02-07T13:59:58.353Z,60.08
2018-02-07T14:02:32.079Z,66.32
2018-02-07T14:05:05.926Z,49.50
2018-02-07T14:07:39.678Z,57.38
2018-02-07T14:10:13.448Z,55.75
2018-02-07T14:12:48.078Z,50.45
2018-02-07T14:15:23.728Z,58.22
2018-02-07T14:17:57.314Z,57.88
2018-02-07T14:20:31.190Z,51.83
2018-02-07T14:23:04.915Z,55.60
2018-02-07T14:25:39.664Z,50.53
2018-02-07T14:28:13.476Z,56.90
2018-02-07T14:30:47.275Z,48.78
2018-02-07T14:33:21.092Z,46.58
2018-02-07T14:35:54.940Z,48.25
2018-02-07T14:38:28.897Z,51.63
2018-02-07T14:41:02.701Z,49.08
2018-02-07T14:43:36.436Z,45.95
2018-02-07T14:46:10.209Z,44.60
2018-02-07T14:48:44.024Z,42.50
2018-02-07T14:51:17.807Z,46.47
2018-02-07T14:53:52.532Z,51.88
2018-02-07T14:56:27.188Z,41.85
2018-02-07T14:59:00.952Z,40.20
2018-02-07T15:01:34.834Z,44.97
2018-02-07T15:04:08.687Z,48.75
2018-02-07T15:06:43.211Z,36.15
2018-02-07T15:09:17.891Z,39.45
2018-02-07T15:11:52.449Z,41.47
2018-02-07T15:14:28.668Z,43.20
2018-02-07T15:17:02.367Z,40.17
2018-02-07T15:19:36.476Z,42.22
2018-02-07T15:22:11.193Z,42.60
2018-02-07T15:24:46.073Z,37.20
2018-02-07T15:27:19.851Z,46.85
2018-02-07T15:29:53.668Z,41.83
2018-02-07T15:32:27.468Z,44.42
2018-02-07T15:35:01.280Z,45.63
2018-02-07T15:37:35.214Z,41.53
2018-02-07T15:40:09.045Z,48.15
2018-02-07T15:42:42.887Z,47.80
2018-02-07T15:45:16.831Z,42.28
2018-02-07T15:47:53.051Z,46.83
2018-02-07T15:50:26.620Z,48.03
2018-02-07T15:53:04.079Z,48.50
2018-02-07T15:55:41.441Z,44.30
2018-02-07T15:58:15.091Z,48.13
2018-02-07T16:00:48.979Z,46.67
2018-02-07T16:03:22.638Z,44.92
2018-02-07T16:05:56.404Z,42.95
2018-02-07T16:08:30.144Z,43.05
2018-02-07T16:11:04.107Z,45.60
2018-02-07T16:13:38.709Z,41.65
2018-02-07T16:16:12.487Z,43.95
2018-02-07T16:18:47.221Z,43.20
2018-02-07T16:21:20.991Z,39.38
2018-02-07T16:23:54.719Z,48.53
2018-02-07T16:26:29.240Z,40.15
2018-02-07T16:29:03.072Z,42.58
2018-02-07T16:31:37.580Z,42.80
2018-02-07T16:34:11.415Z,48.13
2018-02-07T16:36:45.075Z,40.95
2018-02-07T16:39:18.827Z,42.85
2018-02-07T16:41:52.753Z,41.80
2018-02-07T16:44:26.575Z,47.65
2018-02-07T16:47:01.244Z,46.85
2018-02-07T16:49:35.096Z,48.55
2018-02-07T16:52:08.855Z,50.70
2018-02-07T16:54:42.556Z,44.50
2018-02-07T16:57:16.331Z,42.65
2018-02-07T16:59:50.155Z,46.40
2018-02-07T17:02:24.001Z,48.33
2018-02-07T17:04:59.632Z,45.30
2018-02-07T17:07:33.562Z,50.08
2018-02-07T17:10:07.964Z,45.67
2018-02-07T17:12:42.768Z,41.08
2018-02-07T17:15:16.443Z,44.60
2018-02-07T17:17:50.986Z,46.70
2018-02-07T17:20:24.880Z,49.47
2018-02-07T17:22:58.627Z,46.03
2018-02-07T17:25:32.625Z,43.50
2018-02-07T17:28:06.500Z,40.85
2018-02-07T17:30:41.096Z,46.85
2018-02-07T17:33:15.008Z,48.15
2018-02-07T17:35:49.862Z,44.10
2018-02-07T17:38:23.652Z,55.20
2018-02-07T17:40:57.549Z,42.40
2018-02-07T17:43:31.306Z,43.42
2018-02-07T17:46:05.176Z,45.80
2018-02-07T17:48:39.728Z,41.13
2018-02-07T17:51:13.612Z,45.50
2018-02-07T17:53:47.342Z,50.40
2018-02-07T17:56:22.924Z,49.67
2018-02-07T17:58:56.789Z,48.83
2018-02-07T18:01:30.640Z,40.75
2018-02-07T18:04:04.328Z,43.87
2018-02-07T18:06:38.965Z,50.38
2018-02-07T18:09:13.549Z,44.00
2018-02-07T18:11:47.616Z,47.70
2018-02-07T18:14:21.419Z,50.50
2018-02-07T18:16:56.955Z,47.97
2018-02-07T18:19:30.769Z,41.67
2018-02-07T18:22:04.734Z,44.55
2018-02-07T18:24:38.373Z,44.28
2018-02-07T18:27:12.304Z,49.00
2018-02-07T18:29:46.248Z,49.35
2018-02-07T18:32:21.012Z,49.03
2018-02-07T18:34:55.600Z,46.72
2018-02-07T18:37:30.120Z,44.33
2018-02-07T18:40:04.794Z,46.20
2018-02-07T18:42:39.494Z,54.90
2018-02-07T18:45:14.203Z,44.25
2018-02-07T18:47:48.870Z,49.17
2018-02-07T18:50:22.475Z,50.70
2018-02-07T18:52:56.334Z,51.50
2018-02-07T18:55:30.162Z,49.30
2018-02-07T18:58:04.684Z,48.42
2018-02-07T19:00:38.576Z,47.75
2018-02-07T19:03:13.188Z,44.13
2018-02-07T19:05:48.985Z,44.05
2018-02-07T19:08:23.612Z,44.85
2018-02-07T19:10:57.285Z,44.05
2018-02-07T19:13:31.072Z,44.38
2018-02-07T19:16:04.883Z,49.20
2018-02-07T19:18:38.803Z,47.03
2018-02-07T19:21:12.424Z,46.58
2018-02-07T19:23:46.279Z,46.83
2018-02-07T19:26:20.975Z,46.28
2018-02-07T19:28:55.532Z,49.88
2018-02-07T19:31:29.273Z,52.17
2018-02-07T19:34:03.842Z,50.40
2018-02-07T19:36:38.660Z,47.90
2018-02-07T19:39:12.435Z,42.33
2018-02-07T19:41:47.074Z,49.13
2018-02-07T19:44:21.711Z,50.75
2018-02-07T19:46:55.408Z,52.08
2018-02-07T19:49:29.211Z,48.97
2018-02-07T19:52:02.944Z,50.75
2018-02-07T19:54:36.672Z,50.45
2018-02-07T19:57:11.237Z,50.90
2018-02-07T19:59:45.096Z,50.85
2018-02-07T20:02:18.745Z,45.92
2018-02-07T20:04:52.568Z,54.97
2018-02-07T20:07:26.407Z,57.40
2018-02-07T20:10:00.116Z,53.92
2018-02-07T20:12:33.945Z,47.03
2018-02-07T20:15:08.407Z,53.22
2018-02-07T20:17:42.123Z,49.08
2018-02-07T20:20:15.953Z,55.00
2018-02-07T20:22:50.447Z,54.25
2018-02-07T20:25:24.962Z,52.35
2018-02-07T20:27:58.706Z,44.40
2018-02-07T20:30:32.499Z,54.72
2018-02-07T20:33:06.235Z,54.00
2018-02-07T20:35:40.712Z,53.35
2018-02-07T20:38:14.478Z,52.60
2018-02-07T20:40:48.259Z,57.28
2018-02-07T20:43:22.067Z,51.90
2018-02-07T20:45:55.902Z,55.00
2018-02-07T20:48:30.574Z,49.15
2018-02-07T20:51:04.375Z,51.95
2018-02-07T20:53:38.429Z,53.97
2018-02-07T20:56:12.207Z,51.45
2018-02-07T20:58:46.047Z,49.88
2018-02-07T21:01:20.207Z,50.65
2018-02-07T21:03:53.967Z,50.85
2018-02-07T21:06:28.138Z,51.40
2018-02-07T21:09:01.944Z,51.45
2018-02-07T21:11:35.734Z,51.28
2018-02-07T21:14:09.428Z,57.05
2018-02-07T21:16:44.083Z,50.12
2018-02-07T21:19:17.895Z,49.40
2018-02-07T21:21:51.671Z,53.80
2018-02-07T21:24:25.438Z,50.72
2018-02-07T21:26:59.349Z,48.08
2018-02-07T21:29:33.032Z,50.97
2018-02-07T21:32:06.732Z,56.28
2018-02-07T21:34:40.612Z,49.38
2018-02-07T21:37:14.411Z,50.12
2018-02-07T21:39:48.202Z,49.80
2018-02-07T21:42:22.132Z,55.33
2018-02-07T21:44:55.741Z,52.88
2018-02-07T21:47:29.583Z,53.78
2018-02-07T21:50:03.348Z,55.38
2018-02-07T21:52:37.232Z,52.28
2018-02-07T21:55:10.837Z,48.87
2018-02-07T21:57:44.526Z,58.03
